createdAt,value
2023-03-17T00:00:25.656Z,6.79
2023-03-17T00:03:23.603Z,6.70
2023-03-17T00:05:56.787Z,6.66
2023-03-17T00:08:31.818Z,6.65
2023-03-17T00:11:04.721Z,6.64
2023-03-17T00:13:37.197Z,6.64
2023-03-17T00:16:09.278Z,6.65
2023-03-17T00:18:41.727Z,6.63
2023-03-17T00:21:17.104Z,6.59
2023-03-17T00:23:53.019Z,6.56
2023-03-17T00:26:26.747Z,6.61
2023-03-17T00:28:59.080Z,6.64
2023-03-17T00:31:32.831Z,6.67
2023-03-17T00:34:06.009Z,6.66
2023-03-17T00:36:38.765Z,6.64
2023-03-17T00:39:11.849Z,6.60
2023-03-17T00:41:44.790Z,6.55
2023-03-17T00:44:17.576Z,6.64
2023-03-17T00:46:48.427Z,6.70
2023-03-17T00:49:22.948Z,6.73
2023-03-17T00:51:55.717Z,6.77
2023-03-17T00:54:28.027Z,6.73
2023-03-17T00:57:00.403Z,6.68
2023-03-17T00:59:37.317Z,6.68
2023-03-17T01:02:10.561Z,6.64
2023-03-17T01:04:49.895Z,6.63
2023-03-17T01:07:25.568Z,6.63
2023-03-17T01:09:56.232Z,6.63
2023-03-17T01:12:29.272Z,6.67
2023-03-17T01:15:01.656Z,6.73
2023-03-17T01:17:34.194Z,6.74
2023-03-17T01:20:08.152Z,6.80
2023-03-17T01:22:40.639Z,6.76
2023-03-17T01:25:14.015Z,6.74
2023-03-17T01:27:46.871Z,6.69
2023-03-17T01:30:27.556Z,6.68
2023-03-17T01:33:01.007Z,6.60
2023-03-17T01:35:33.804Z,6.48
2023-03-17T01:38:06.399Z,6.40
2023-03-17T01:40:43.930Z,6.37
2023-03-17T01:43:24.729Z,6.37
2023-03-17T01:46:29.679Z,6.40
2023-03-17T01:49:19.445Z,6.40
2023-03-17T01:51:57.688Z,6.35
2023-03-17T01:54:35.706Z,6.31
2023-03-17T01:57:13.666Z,6.37
2023-03-17T01:59:50.960Z,6.41
2023-03-17T02:02:26.171Z,6.30
2023-03-17T02:04:58.646Z,6.18
2023-03-17T02:07:31.501Z,6.10
2023-03-17T02:10:04.578Z,5.98
2023-03-17T02:12:37.552Z,5.85
2023-03-17T02:15:11.487Z,5.77
2023-03-17T02:17:43.828Z,5.72
2023-03-17T02:20:30.480Z,5.66
2023-03-17T02:23:04.358Z,5.58
2023-03-17T02:25:40.146Z,5.48
2023-03-17T02:28:14.995Z,5.42
2023-03-17T02:30:47.393Z,5.35
2023-03-17T02:33:20.325Z,5.29
2023-03-17T02:35:53.121Z,5.31
2023-03-17T02:38:25.452Z,5.32
2023-03-17T02:40:57.821Z,5.34
2023-03-17T02:43:30.070Z,5.36
2023-03-17T02:46:02.559Z,5.36
2023-03-17T02:48:35.632Z,5.36
2023-03-17T02:51:08.469Z,5.37
2023-03-17T02:53:40.760Z,5.36
2023-03-17T02:56:13.496Z,5.34
2023-03-17T02:58:45.807Z,5.29
2023-03-17T03:01:18.337Z,5.24
2023-03-17T03:03:49.030Z,5.27
2023-03-17T03:06:23.737Z,5.24
2023-03-17T03:08:56.053Z,5.16
2023-03-17T03:11:29.509Z,5.14
2023-03-17T03:14:01.754Z,5.09
2023-03-17T03:16:34.091Z,5.05
2023-03-17T03:19:07.087Z,5.04
2023-03-17T03:21:39.501Z,4.99
2023-03-17T03:24:11.995Z,4.95
2023-03-17T03:26:44.392Z,5.01
2023-03-17T03:29:16.987Z,5.04
2023-03-17T03:31:48.807Z,5.03
2023-03-17T03:34:21.301Z,4.96
2023-03-17T03:36:51.960Z,4.97
2023-03-17T03:39:24.274Z,4.96
2023-03-17T03:41:58.390Z,4.98
2023-03-17T03:44:31.139Z,5.06
2023-03-17T03:47:03.577Z,5.14
2023-03-17T03:49:36.020Z,5.16
2023-03-17T03:52:09.265Z,5.15
2023-03-17T03:54:41.553Z,5.20
2023-03-17T03:57:14.075Z,5.20
2023-03-17T03:59:46.500Z,5.22
2023-03-17T04:02:19.078Z,5.25
2023-03-17T04:04:51.880Z,5.19
2023-03-17T04:07:22.581Z,5.18
2023-03-17T04:09:54.833Z,5.12
2023-03-17T04:12:27.245Z,5.10
2023-03-17T04:14:59.540Z,5.08
2023-03-17T04:17:31.843Z,5.00
2023-03-17T04:20:04.534Z,4.91
2023-03-17T04:22:35.218Z,4.83
2023-03-17T04:25:08.903Z,4.74
2023-03-17T04:27:41.285Z,4.72
2023-03-17T04:30:17.910Z,4.69
2023-03-17T04:32:50.444Z,4.65
2023-03-17T04:35:24.585Z,4.65
2023-03-17T04:37:57.050Z,4.71
2023-03-17T04:40:29.617Z,4.81
2023-03-17T04:43:03.563Z,4.91
2023-03-17T04:45:36.213Z,4.99
2023-03-17T04:48:09.036Z,4.95
2023-03-17T04:50:42.552Z,4.90
2023-03-17T04:53:14.905Z,4.88
2023-03-17T04:55:48.030Z,4.84
2023-03-17T04:58:30.432Z,4.88
2023-03-17T05:01:03.916Z,4.92
2023-03-17T05:03:34.617Z,4.92
2023-03-17T05:06:08.694Z,4.93
2023-03-17T05:08:41.254Z,4.90
2023-03-17T05:11:14.130Z,4.82
2023-03-17T05:13:46.626Z,4.80
2023-03-17T05:16:19.149Z,4.84
2023-03-17T05:18:51.500Z,4.90
2023-03-17T05:21:23.746Z,4.98
2023-03-17T05:23:56.123Z,5.01
2023-03-17T05:26:28.592Z,5.05
2023-03-17T05:29:01.034Z,5.06
2023-03-17T05:31:33.541Z,5.11
2023-03-17T05:34:06.324Z,5.21
2023-03-17T05:36:38.752Z,5.30
2023-03-17T05:39:12.808Z,5.36
2023-03-17T05:41:47.263Z,5.43
2023-03-17T05:44:20.541Z,5.48
2023-03-17T05:46:52.844Z,5.47
2023-03-17T05:49:25.347Z,5.39
2023-03-17T05:51:57.728Z,5.35
2023-03-17T05:54:30.011Z,5.30
2023-03-17T05:57:03.057Z,5.31
2023-03-17T05:59:36.353Z,5.27
2023-03-17T06:02:08.887Z,5.27
2023-03-17T06:04:41.812Z,5.30
2023-03-17T06:07:14.357Z,5.34
2023-03-17T06:09:45.126Z,5.43
2023-03-17T06:12:17.621Z,5.50
2023-03-17T06:14:50.014Z,5.63
2023-03-17T06:17:22.345Z,5.77
2023-03-17T06:19:54.772Z,5.78
2023-03-17T06:22:27.019Z,5.80
2023-03-17T06:24:59.630Z,5.88
2023-03-17T06:27:30.913Z,5.98
2023-03-17T06:30:03.417Z,6.09
2023-03-17T06:32:34.592Z,6.26
2023-03-17T06:35:08.244Z,6.53
2023-03-17T06:37:40.692Z,6.81
2023-03-17T06:40:16.306Z,7.10
2023-03-17T06:42:48.844Z,7.42
2023-03-17T06:45:21.198Z,7.68
2023-03-17T06:47:53.587Z,7.85
2023-03-17T06:50:26.061Z,7.93
2023-03-17T06:52:58.590Z,8.02
2023-03-17T06:55:32.138Z,8.15
2023-03-17T06:58:05.153Z,8.31
2023-03-17T07:00:38.448Z,8.53
2023-03-17T07:03:11.405Z,8.71
2023-03-17T07:05:43.873Z,8.76
2023-03-17T07:08:16.378Z,8.74
2023-03-17T07:10:49.107Z,8.77
2023-03-17T07:13:22.461Z,8.81
2023-03-17T07:15:55.607Z,8.71
2023-03-17T07:18:28.095Z,8.58
2023-03-17T07:21:00.827Z,8.47
2023-03-17T07:23:31.598Z,8.42
2023-03-17T07:26:04.318Z,8.42
2023-03-17T07:28:36.727Z,8.42
2023-03-17T07:31:09.709Z,8.43
2023-03-17T07:33:42.158Z,8.44
2023-03-17T07:36:16.048Z,8.51
2023-03-17T07:38:48.876Z,8.58
2023-03-17T07:41:22.156Z,8.65
2023-03-17T07:43:54.421Z,8.68
2023-03-17T07:46:28.022Z,8.72
2023-03-17T07:49:00.453Z,8.73
2023-03-17T07:51:32.865Z,8.76
2023-03-17T07:54:06.594Z,8.81
2023-03-17T07:56:39.293Z,8.85
2023-03-17T07:59:11.050Z,8.85
2023-03-17T08:01:43.338Z,8.84
2023-03-17T08:04:15.901Z,8.85
2023-03-17T08:06:48.402Z,8.85
2023-03-17T08:09:21.231Z,8.84
2023-03-17T08:11:53.645Z,8.85
2023-03-17T08:14:26.058Z,8.90
2023-03-17T08:16:58.924Z,8.96
2023-03-17T08:19:31.744Z,9.08
2023-03-17T08:22:04.051Z,9.18
2023-03-17T08:24:37.137Z,9.24
2023-03-17T08:27:09.682Z,9.25
2023-03-17T08:29:40.390Z,9.31
2023-03-17T08:32:13.557Z,9.39
2023-03-17T08:34:46.321Z,9.43
2023-03-17T08:37:18.649Z,9.46
2023-03-17T08:39:51.322Z,9.51
2023-03-17T08:42:23.658Z,9.58
2023-03-17T08:44:56.035Z,9.71
2023-03-17T08:47:28.451Z,9.81
2023-03-17T08:50:00.598Z,9.87
2023-03-17T08:52:33.864Z,9.90
2023-03-17T08:55:08.934Z,9.95
2023-03-17T08:57:41.392Z,10.02
2023-03-17T09:00:20.393Z,10.07
2023-03-17T09:02:52.798Z,10.16
2023-03-17T09:05:25.268Z,10.22
2023-03-17T09:07:57.647Z,10.25
2023-03-17T09:10:30.636Z,10.24
2023-03-17T09:13:04.531Z,10.22
2023-03-17T09:15:37.964Z,10.24
2023-03-17T09:18:10.675Z,10.21
2023-03-17T09:20:41.453Z,10.23
2023-03-17T09:23:14.277Z,10.35
2023-03-17T09:25:47.254Z,10.50
2023-03-17T09:28:20.063Z,10.52
2023-03-17T09:30:53.016Z,10.53
2023-03-17T09:33:25.942Z,10.54
2023-03-17T09:35:58.804Z,10.60
2023-03-17T09:38:31.888Z,10.68
2023-03-17T09:41:13.513Z,10.98
2023-03-17T09:43:51.084Z,11.14
2023-03-17T09:46:37.054Z,11.27
2023-03-17T09:49:10.854Z,11.56
2023-03-17T09:51:43.595Z,11.79
2023-03-17T09:54:20.391Z,12.20
2023-03-17T09:56:56.527Z,12.71
2023-03-17T09:59:40.559Z,13.06
2023-03-17T10:02:20.414Z,13.39
2023-03-17T10:04:53.419Z,13.42
2023-03-17T10:07:29.826Z,13.38
2023-03-17T10:10:05.274Z,13.19
2023-03-17T10:12:47.042Z,13.23
2023-03-17T10:15:25.284Z,13.19
2023-03-17T10:17:58.071Z,13.15
2023-03-17T10:20:32.399Z,13.07
2023-03-17T10:23:06.569Z,13.05
2023-03-17T10:25:39.624Z,12.92
2023-03-17T10:28:22.992Z,13.03
2023-03-17T10:30:55.965Z,13.44
2023-03-17T10:33:28.794Z,13.81
2023-03-17T10:36:10.706Z,14.19
2023-03-17T10:38:43.369Z,14.21
2023-03-17T10:41:17.584Z,14.15
2023-03-17T10:43:51.952Z,13.91
2023-03-17T10:46:26.721Z,13.72
2023-03-17T10:49:05.694Z,13.50
2023-03-17T10:51:40.800Z,13.25
2023-03-17T10:54:18.890Z,12.96
2023-03-17T10:56:59.174Z,12.67
2023-03-17T10:59:33.938Z,12.55
2023-03-17T11:02:15.554Z,12.45
2023-03-17T11:04:48.501Z,12.36
2023-03-17T11:07:23.205Z,12.37
2023-03-17T11:10:01.563Z,12.35
2023-03-17T11:12:40.178Z,12.34
2023-03-17T11:15:16.681Z,12.28
2023-03-17T11:17:55.153Z,12.24
2023-03-17T11:20:47.456Z,12.28
2023-03-17T11:23:30.120Z,12.28
2023-03-17T11:26:09.253Z,12.22
2023-03-17T11:28:44.665Z,12.34
2023-03-17T11:31:24.526Z,12.61
2023-03-17T11:34:02.663Z,12.73
2023-03-17T11:36:44.837Z,12.81
2023-03-17T11:39:22.108Z,13.14
2023-03-17T11:42:08.303Z,13.59
2023-03-17T11:45:01.436Z,13.80
2023-03-17T11:47:47.012Z,13.72
2023-03-17T11:50:28.029Z,13.76
2023-03-17T11:53:11.805Z,13.99
2023-03-17T11:55:48.928Z,14.17
2023-03-17T11:58:30.530Z,14.09
2023-03-17T12:01:04.515Z,13.91
2023-03-17T12:03:43.428Z,14.01
2023-03-17T12:06:20.636Z,13.98
2023-03-17T12:08:56.500Z,13.73
2023-03-17T12:11:31.945Z,13.59
2023-03-17T12:14:06.085Z,13.51
2023-03-17T12:16:42.593Z,13.34
2023-03-17T12:19:17.802Z,13.13
2023-03-17T12:21:54.445Z,12.91
2023-03-17T12:24:31.969Z,12.89
2023-03-17T12:27:07.720Z,12.85
2023-03-17T12:29:47.525Z,12.80
2023-03-17T12:32:23.796Z,12.76
2023-03-17T12:34:58.861Z,12.59
2023-03-17T12:37:32.095Z,12.51
2023-03-17T12:40:08.829Z,12.49
2023-03-17T12:42:52.493Z,12.44
2023-03-17T12:45:56.081Z,12.24
2023-03-17T12:48:58.308Z,12.05
2023-03-17T12:51:41.997Z,12.08
2023-03-17T12:54:17.238Z,12.11
2023-03-17T12:56:50.619Z,12.02
2023-03-17T12:59:26.175Z,11.92
2023-03-17T13:02:00.347Z,11.80
2023-03-17T13:04:35.639Z,11.73
2023-03-17T13:07:10.608Z,11.72
2023-03-17T13:09:53.144Z,11.68
2023-03-17T13:12:52.990Z,11.56
2023-03-17T13:15:30.656Z,11.53
2023-03-17T13:18:31.438Z,11.84
2023-03-17T13:21:16.353Z,12.37
2023-03-17T13:23:55.060Z,12.90
2023-03-17T13:26:55.267Z,13.38
2023-03-17T13:29:38.949Z,13.64
2023-03-17T13:32:35.185Z,13.67
2023-03-17T13:35:38.970Z,13.77
2023-03-17T13:38:25.551Z,13.78
2023-03-17T13:41:09.634Z,13.67
2023-03-17T13:43:51.986Z,13.56
2023-03-17T13:46:35.032Z,13.45
2023-03-17T13:49:21.461Z,13.45
2023-03-17T13:52:00.444Z,13.74
2023-03-17T13:54:42.327Z,14.05
2023-03-17T13:57:29.493Z,14.29
2023-03-17T14:00:17.600Z,14.61
2023-03-17T14:02:51.349Z,14.83
2023-03-17T14:05:29.285Z,14.98
2023-03-17T14:08:04.539Z,15.01
2023-03-17T14:10:37.421Z,15.05
2023-03-17T14:13:22.107Z,15.18
2023-03-17T14:15:57.613Z,15.28
2023-03-17T14:18:38.424Z,15.32
2023-03-17T14:21:24.162Z,15.34
2023-03-17T14:24:04.279Z,15.41
2023-03-17T14:26:37.095Z,15.48
2023-03-17T14:29:11.290Z,15.49
2023-03-17T14:31:44.219Z,15.44
2023-03-17T14:34:17.677Z,15.40
2023-03-17T14:36:50.039Z,15.26
2023-03-17T14:39:27.244Z,15.02
2023-03-17T14:42:05.929Z,14.68
2023-03-17T14:44:42.326Z,14.27
2023-03-17T14:47:21.074Z,14.06
2023-03-17T14:49:54.373Z,13.92
2023-03-17T14:52:29.529Z,13.81
2023-03-17T14:55:02.245Z,13.66
2023-03-17T14:57:38.951Z,13.37
2023-03-17T15:00:36.631Z,13.16
2023-03-17T15:03:20.522Z,12.92
2023-03-17T15:06:04.053Z,12.69
2023-03-17T15:08:49.169Z,12.36
2023-03-17T15:11:25.261Z,12.18
2023-03-17T15:14:07.340Z,12.14
2023-03-17T15:16:39.874Z,12.12
2023-03-17T15:19:18.170Z,12.10
2023-03-17T15:21:50.706Z,11.94
2023-03-17T15:24:30.006Z,11.76
2023-03-17T15:27:07.293Z,11.58
2023-03-17T15:29:39.689Z,11.46
2023-03-17T15:32:16.664Z,11.42
2023-03-17T15:34:49.003Z,11.38
2023-03-17T15:37:23.489Z,11.30
2023-03-17T15:39:56.747Z,11.09
2023-03-17T15:42:31.081Z,11.02
2023-03-17T15:45:03.993Z,11.01
2023-03-17T15:47:40.127Z,11.04
2023-03-17T15:50:19.417Z,11.05
2023-03-17T15:52:54.148Z,10.99
2023-03-17T15:55:29.586Z,10.96
2023-03-17T15:58:01.973Z,10.90
2023-03-17T16:00:34.917Z,10.75
2023-03-17T16:03:14.813Z,10.67
2023-03-17T16:05:47.194Z,10.64
2023-03-17T16:08:19.606Z,10.64
2023-03-17T16:10:52.952Z,10.62
2023-03-17T16:13:25.382Z,10.53
2023-03-17T16:15:59.466Z,10.45
2023-03-17T16:18:34.828Z,10.40
2023-03-17T16:21:07.985Z,10.38
2023-03-17T16:23:40.356Z,10.33
2023-03-17T16:26:15.990Z,10.25
2023-03-17T16:28:50.109Z,10.13
2023-03-17T16:31:25.614Z,10.00
2023-03-17T16:33:58.240Z,9.93
2023-03-17T16:36:30.650Z,9.87
2023-03-17T16:39:05.957Z,9.85
2023-03-17T16:41:38.349Z,9.82
2023-03-17T16:44:14.288Z,9.80
2023-03-17T16:46:46.778Z,9.78
2023-03-17T16:49:18.032Z,9.70
2023-03-17T16:51:50.790Z,9.58
2023-03-17T16:54:23.427Z,9.46
2023-03-17T16:56:55.926Z,9.38
2023-03-17T16:59:31.312Z,9.34
2023-03-17T17:02:03.835Z,9.29
2023-03-17T17:04:38.616Z,9.30
2023-03-17T17:07:11.036Z,9.30
2023-03-17T17:09:43.478Z,9.27
2023-03-17T17:12:15.916Z,9.25
2023-03-17T17:14:48.328Z,9.24
2023-03-17T17:17:20.708Z,9.23
2023-03-17T17:19:53.142Z,9.16
2023-03-17T17:22:25.626Z,9.14
2023-03-17T17:24:56.405Z,9.13
2023-03-17T17:27:28.763Z,9.14
2023-03-17T17:30:01.092Z,9.22
2023-03-17T17:32:33.918Z,9.25
2023-03-17T17:35:07.019Z,9.25
2023-03-17T17:37:39.786Z,9.24
2023-03-17T17:40:17.746Z,9.27
2023-03-17T17:42:50.371Z,9.25
2023-03-17T17:45:23.369Z,9.22
2023-03-17T17:47:55.946Z,9.16
2023-03-17T17:50:27.437Z,9.17
2023-03-17T17:53:05.471Z,9.11
2023-03-17T17:55:37.930Z,9.07
2023-03-17T17:58:10.809Z,9.06
2023-03-17T18:00:43.583Z,9.04
2023-03-17T18:03:16.057Z,9.08
2023-03-17T18:05:48.397Z,9.15
2023-03-17T18:08:20.929Z,9.21
2023-03-17T18:10:53.343Z,9.25
2023-03-17T18:13:25.887Z,9.30
2023-03-17T18:15:58.215Z,9.30
2023-03-17T18:18:30.577Z,9.26
2023-03-17T18:21:04.288Z,9.23
2023-03-17T18:23:36.714Z,9.24
2023-03-17T18:26:09.570Z,9.30
2023-03-17T18:28:42.011Z,9.33
2023-03-17T18:31:17.185Z,9.31
2023-03-17T18:33:51.322Z,9.26
2023-03-17T18:36:24.413Z,9.28
2023-03-17T18:38:56.897Z,9.28
2023-03-17T18:41:29.840Z,9.26
2023-03-17T18:44:02.568Z,9.23
2023-03-17T18:46:34.881Z,9.23
2023-03-17T18:49:08.909Z,9.27
2023-03-17T18:51:41.269Z,9.33
2023-03-17T18:54:13.885Z,9.33
2023-03-17T18:56:44.534Z,9.37
2023-03-17T18:59:16.960Z,9.42
2023-03-17T19:01:49.540Z,9.49
2023-03-17T19:04:22.117Z,9.57
2023-03-17T19:06:54.587Z,9.63
2023-03-17T19:09:27.293Z,9.70
2023-03-17T19:11:58.037Z,9.78
2023-03-17T19:14:30.656Z,9.82
2023-03-17T19:17:01.453Z,9.88
2023-03-17T19:19:35.463Z,9.92
2023-03-17T19:22:08.061Z,9.97
2023-03-17T19:24:38.923Z,10.01
2023-03-17T19:27:11.560Z,10.01
2023-03-17T19:29:44.000Z,10.04
2023-03-17T19:32:17.304Z,10.07
2023-03-17T19:34:49.927Z,10.10
2023-03-17T19:37:22.690Z,10.13
2023-03-17T19:39:55.091Z,10.16
2023-03-17T19:42:27.783Z,10.15
2023-03-17T19:45:00.511Z,10.15
2023-03-17T19:47:34.422Z,10.11
2023-03-17T19:50:07.461Z,10.08
2023-03-17T19:52:39.833Z,10.06
2023-03-17T19:55:13.066Z,10.04
2023-03-17T19:57:45.681Z,9.93
2023-03-17T20:00:19.554Z,9.83
2023-03-17T20:02:52.789Z,9.72
2023-03-17T20:05:25.276Z,9.63
2023-03-17T20:07:57.680Z,9.56
2023-03-17T20:10:31.313Z,9.49
2023-03-17T20:13:03.925Z,9.40
2023-03-17T20:15:36.794Z,9.34
2023-03-17T20:18:09.388Z,9.31
2023-03-17T20:20:40.363Z,9.28
2023-03-17T20:23:12.946Z,9.25
2023-03-17T20:25:43.723Z,9.20
2023-03-17T20:28:16.794Z,9.14
2023-03-17T20:30:50.315Z,9.12
2023-03-17T20:33:22.954Z,9.14
2023-03-17T20:35:53.763Z,9.16
2023-03-17T20:38:25.739Z,9.14
2023-03-17T20:40:59.003Z,9.09
2023-03-17T20:43:32.016Z,9.05
2023-03-17T20:46:03.015Z,9.02
2023-03-17T20:48:34.808Z,8.99
2023-03-17T20:51:06.672Z,8.96
2023-03-17T20:53:37.718Z,8.91
2023-03-17T20:56:09.435Z,8.89
2023-03-17T20:58:40.364Z,8.88
2023-03-17T21:01:13.002Z,8.85
2023-03-17T21:03:44.406Z,8.83
2023-03-17T21:06:15.405Z,8.79
2023-03-17T21:08:46.900Z,8.75
2023-03-17T21:11:18.354Z,8.69
2023-03-17T21:13:49.301Z,8.66
2023-03-17T21:16:21.440Z,8.66
2023-03-17T21:18:52.830Z,8.68
2023-03-17T21:21:24.964Z,8.69
2023-03-17T21:23:55.815Z,8.70
2023-03-17T21:26:26.698Z,8.69
2023-03-17T21:28:57.660Z,8.68
2023-03-17T21:31:28.681Z,8.67
2023-03-17T21:33:59.506Z,8.65
2023-03-17T21:36:30.326Z,8.65
2023-03-17T21:39:01.165Z,8.65
2023-03-17T21:41:33.252Z,8.64
2023-03-17T21:44:04.781Z,8.59
2023-03-17T21:46:35.542Z,8.54
2023-03-17T21:49:06.525Z,8.48
2023-03-17T21:51:37.385Z,8.44
2023-03-17T21:54:08.142Z,8.44
2023-03-17T21:56:39.814Z,8.45
2023-03-17T21:59:11.280Z,8.46
2023-03-17T22:01:42.697Z,8.47
2023-03-17T22:04:14.206Z,8.45
2023-03-17T22:06:45.130Z,8.43
2023-03-17T22:09:18.191Z,8.42
2023-03-17T22:11:50.183Z,8.37
2023-03-17T22:14:21.027Z,8.35
2023-03-17T22:16:52.470Z,8.35
2023-03-17T22:19:23.266Z,8.32
2023-03-17T22:21:54.221Z,8.29
2023-03-17T22:24:25.722Z,8.28
2023-03-17T22:26:56.983Z,8.28
2023-03-17T22:29:27.800Z,8.29
2023-03-17T22:31:58.791Z,8.31
2023-03-17T22:34:29.663Z,8.31
2023-03-17T22:37:00.473Z,8.33
2023-03-17T22:39:31.448Z,8.30
2023-03-17T22:42:02.316Z,8.23
2023-03-17T22:44:33.143Z,8.25
2023-03-17T22:47:04.417Z,8.27
2023-03-17T22:49:35.210Z,8.29
2023-03-17T22:52:06.247Z,8.29
2023-03-17T22:54:37.048Z,8.26
2023-03-17T22:57:08.042Z,8.21
2023-03-17T22:59:38.953Z,8.15
2023-03-17T23:02:11.573Z,8.07
2023-03-17T23:04:42.505Z,8.02
2023-03-17T23:07:13.514Z,8.00
2023-03-17T23:09:45.425Z,7.97
2023-03-17T23:12:16.341Z,7.93
2023-03-17T23:14:47.252Z,7.90
2023-03-17T23:17:18.161Z,7.87
2023-03-17T23:19:49.403Z,7.82
2023-03-17T23:22:20.442Z,7.77
2023-03-17T23:24:51.915Z,7.74
2023-03-17T23:27:22.706Z,7.70
2023-03-17T23:29:53.566Z,7.66
2023-03-17T23:32:24.699Z,7.65
2023-03-17T23:34:55.636Z,7.67
2023-03-17T23:37:27.451Z,7.70
2023-03-17T23:39:58.280Z,7.72
2023-03-17T23:42:29.944Z,7.70
2023-03-17T23:45:00.892Z,7.70
2023-03-17T23:47:31.652Z,7.70
2023-03-17T23:50:03.776Z,7.68
2023-03-17T23:52:34.567Z,7.66
2023-03-17T23:55:06.032Z,7.63
2023-03-17T23:57:37.908Z,7.62
